createdAt,value
2022-08-14T00:02:24.528Z,24.33
2022-08-14T00:04:56.199Z,24.36
2022-08-14T00:07:25.532Z,24.32
2022-08-14T00:10:01.502Z,24.32
2022-08-14T00:12:48.014Z,24.32
2022-08-14T00:15:30.027Z,24.20
2022-08-14T00:18:07.963Z,24.12
2022-08-14T00:20:43.754Z,24.06
2022-08-14T00:23:16.786Z,24.01
2022-08-14T00:25:59.017Z,23.96
2022-08-14T00:28:36.053Z,23.89
2022-08-14T00:31:06.761Z,23.85
2022-08-14T00:33:51.595Z,23.82
2022-08-14T00:36:35.717Z,23.79
2022-08-14T00:39:17.951Z,23.74
2022-08-14T00:41:46.946Z,23.66
2022-08-14T00:44:27.507Z,23.59
2022-08-14T00:47:00.885Z,23.57
2022-08-14T00:49:31.104Z,23.55
2022-08-14T00:52:07.069Z,23.55
2022-08-14T00:54:38.841Z,23.45
2022-08-14T00:57:08.485Z,23.39
2022-08-14T00:59:37.499Z,23.34
2022-08-14T01:02:06.583Z,23.29
2022-08-14T01:04:53.749Z,23.21
2022-08-14T01:07:24.012Z,23.10
2022-08-14T01:09:55.893Z,23.02
2022-08-14T01:12:27.137Z,22.97
2022-08-14T01:14:58.975Z,22.93
2022-08-14T01:17:50.780Z,22.89
2022-08-14T01:20:40.993Z,22.87
2022-08-14T01:23:16.548Z,22.83
2022-08-14T01:25:49.168Z,22.80
2022-08-14T01:28:46.132Z,22.78
2022-08-14T01:31:14.167Z,22.76
2022-08-14T01:34:00.166Z,22.72
2022-08-14T01:36:37.917Z,22.72
2022-08-14T01:39:13.325Z,22.75
2022-08-14T01:41:43.935Z,22.74
2022-08-14T01:44:33.364Z,22.71
2022-08-14T01:47:09.635Z,22.65
2022-08-14T01:49:46.197Z,22.64
2022-08-14T01:52:34.669Z,22.63
2022-08-14T01:55:17.428Z,22.59
2022-08-14T01:57:49.666Z,22.59
2022-08-14T02:00:36.039Z,22.61
2022-08-14T02:03:06.765Z,22.61
2022-08-14T02:05:38.327Z,22.57
2022-08-14T02:08:09.966Z,22.50
2022-08-14T02:10:46.815Z,22.43
2022-08-14T02:13:19.084Z,22.36
2022-08-14T02:15:48.601Z,22.33
2022-08-14T02:18:18.935Z,22.29
2022-08-14T02:20:48.939Z,22.31
2022-08-14T02:23:29.120Z,22.33
2022-08-14T02:26:24.847Z,22.36
2022-08-14T02:28:57.845Z,22.39
2022-08-14T02:31:42.191Z,22.44
2022-08-14T02:34:22.275Z,22.50
2022-08-14T02:37:04.485Z,22.49
2022-08-14T02:39:37.264Z,22.42
2022-08-14T02:42:13.114Z,22.36
2022-08-14T02:44:49.334Z,22.37
2022-08-14T02:47:20.915Z,22.34
2022-08-14T02:49:54.641Z,22.30
2022-08-14T02:52:55.555Z,22.25
2022-08-14T02:55:12.301Z,22.24
2022-08-14T02:57:57.784Z,22.22
2022-08-14T03:00:33.076Z,22.24
2022-08-14T03:03:02.672Z,22.25
2022-08-14T03:05:41.086Z,22.27
2022-08-14T03:08:15.331Z,22.21
2022-08-14T03:10:49.007Z,22.14
2022-08-14T03:13:21.256Z,22.12
2022-08-14T03:15:55.478Z,22.10
2022-08-14T03:18:31.294Z,22.13
2022-08-14T03:21:07.609Z,22.08
2022-08-14T03:23:38.673Z,22.12
2022-08-14T03:26:12.852Z,22.17
2022-08-14T03:28:49.372Z,22.16
2022-08-14T03:31:22.476Z,22.11
2022-08-14T03:33:54.288Z,22.07
2022-08-14T03:37:38.010Z,22.09
2022-08-14T03:39:21.933Z,22.14
2022-08-14T03:41:56.148Z,22.20
2022-08-14T03:45:19.257Z,22.25
2022-08-14T03:47:22.475Z,22.29
2022-08-14T03:50:11.775Z,22.28
2022-08-14T03:52:41.128Z,22.29
2022-08-14T03:55:16.044Z,22.33
2022-08-14T03:57:45.061Z,22.33
2022-08-14T04:00:40.354Z,22.36
2022-08-14T04:03:06.406Z,22.38
2022-08-14T04:05:42.527Z,22.38
2022-08-14T04:08:29.522Z,22.41
2022-08-14T04:11:00.848Z,22.49
2022-08-14T04:13:31.517Z,22.54
2022-08-14T04:16:06.673Z,22.62
2022-08-14T04:18:39.685Z,22.69
2022-08-14T04:21:10.458Z,22.75
2022-08-14T04:23:39.735Z,22.80
2022-08-14T04:26:14.866Z,22.84
2022-08-14T04:29:06.742Z,22.89
2022-08-14T04:32:57.527Z,22.94
2022-08-14T04:34:31.658Z,23.00
2022-08-14T04:37:22.154Z,23.06
2022-08-14T04:40:11.855Z,23.12
2022-08-14T04:42:58.134Z,23.18
2022-08-14T04:45:38.679Z,23.28
2022-08-14T04:48:36.684Z,23.34
2022-08-14T04:51:06.504Z,23.40
2022-08-14T04:53:42.747Z,23.46
2022-08-14T04:56:31.250Z,23.53
2022-08-14T04:59:10.710Z,23.60
2022-08-14T05:01:48.962Z,23.68
2022-08-14T05:04:21.173Z,23.73
2022-08-14T05:06:54.302Z,23.81
2022-08-14T05:09:24.331Z,23.89
2022-08-14T05:11:53.024Z,23.97
2022-08-14T05:14:43.427Z,24.06
2022-08-14T05:17:11.578Z,24.12
2022-08-14T05:19:44.705Z,24.21
2022-08-14T05:22:30.078Z,24.30
2022-08-14T05:24:58.953Z,24.40
2022-08-14T05:27:27.593Z,24.52
2022-08-14T05:30:01.175Z,24.64
2022-08-14T05:32:29.067Z,24.74
2022-08-14T05:34:59.970Z,24.85
2022-08-14T05:37:30.839Z,24.99
2022-08-14T05:40:02.028Z,25.12
2022-08-14T05:42:32.164Z,25.29
2022-08-14T05:45:11.148Z,25.50
2022-08-14T05:47:43.042Z,25.65
2022-08-14T05:50:17.354Z,25.80
2022-08-14T05:52:50.218Z,25.97
2022-08-14T05:55:21.953Z,26.12
2022-08-14T05:57:54.168Z,26.24
2022-08-14T06:00:29.382Z,26.44
2022-08-14T06:03:04.163Z,26.61
2022-08-14T06:05:38.822Z,26.68
2022-08-14T06:08:31.479Z,26.86
2022-08-14T06:11:06.049Z,26.96
2022-08-14T06:13:41.105Z,27.09
2022-08-14T06:16:17.924Z,27.19
2022-08-14T06:18:48.318Z,27.31
2022-08-14T06:21:17.792Z,27.44
2022-08-14T06:23:48.805Z,27.51
2022-08-14T06:26:20.727Z,27.56
2022-08-14T06:28:52.425Z,27.71
2022-08-14T06:31:20.801Z,27.77
2022-08-14T06:35:02.441Z,27.90
2022-08-14T06:36:39.473Z,27.89
2022-08-14T06:39:09.890Z,27.96
2022-08-14T06:41:57.877Z,28.13
2022-08-14T06:44:32.554Z,28.36
2022-08-14T06:47:03.287Z,28.56
2022-08-14T06:49:40.623Z,28.72
2022-08-14T06:52:18.185Z,28.84
2022-08-14T06:54:47.410Z,28.93
2022-08-14T06:57:15.333Z,29.07
2022-08-14T06:59:43.582Z,29.27
2022-08-14T07:02:29.840Z,29.45
2022-08-14T07:05:17.021Z,29.66
2022-08-14T07:07:52.627Z,29.82
2022-08-14T07:10:22.078Z,30.02
2022-08-14T07:13:01.971Z,30.21
2022-08-14T07:15:34.005Z,30.31
2022-08-14T07:18:03.538Z,30.42
2022-08-14T07:20:32.221Z,30.51
2022-08-14T07:23:07.381Z,30.65
2022-08-14T07:25:37.770Z,30.74
2022-08-14T07:28:21.115Z,30.84
2022-08-14T07:30:50.779Z,30.86
2022-08-14T07:33:24.785Z,31.06
2022-08-14T07:35:59.627Z,31.17
2022-08-14T07:38:34.057Z,31.30
2022-08-14T07:41:11.655Z,31.45
2022-08-14T07:43:53.059Z,31.63
2022-08-14T07:46:28.454Z,31.69
2022-08-14T07:48:58.246Z,31.85
2022-08-14T07:51:34.389Z,32.03
2022-08-14T07:54:11.178Z,32.23
2022-08-14T07:56:47.156Z,32.35
2022-08-14T07:59:18.879Z,32.54
2022-08-14T08:01:51.272Z,32.71
2022-08-14T08:04:24.476Z,32.78
2022-08-14T08:06:53.747Z,32.78
2022-08-14T08:09:32.044Z,32.78
2022-08-14T08:12:04.905Z,32.83
2022-08-14T08:14:56.015Z,32.94
2022-08-14T08:17:28.299Z,33.06
2022-08-14T08:20:03.295Z,33.22
2022-08-14T08:22:32.659Z,33.23
2022-08-14T08:25:02.016Z,33.36
2022-08-14T08:27:30.369Z,33.45
2022-08-14T08:30:09.943Z,33.59
2022-08-14T08:32:41.412Z,33.66
2022-08-14T08:35:18.805Z,33.73
2022-08-14T08:37:47.147Z,33.90
2022-08-14T08:40:31.457Z,34.03
2022-08-14T08:43:01.319Z,34.06
2022-08-14T08:45:29.630Z,34.19
2022-08-14T08:47:57.588Z,34.34
2022-08-14T08:53:02.049Z,34.43
2022-08-14T08:55:38.389Z,34.52
2022-08-14T08:58:16.111Z,34.44
2022-08-14T09:00:50.264Z,34.59
2022-08-14T09:03:25.554Z,34.76
2022-08-14T09:05:57.807Z,34.76
2022-08-14T09:08:32.553Z,34.79
2022-08-14T09:11:19.486Z,34.82
2022-08-14T09:13:51.307Z,34.87
2022-08-14T09:16:25.326Z,34.77
2022-08-14T09:18:55.149Z,34.87
2022-08-14T09:21:25.003Z,34.95
2022-08-14T09:24:29.133Z,35.06
2022-08-14T09:26:50.662Z,35.13
2022-08-14T09:29:23.155Z,35.18
2022-08-14T09:31:57.603Z,35.32
2022-08-14T09:34:58.472Z,35.39
2022-08-14T09:37:43.976Z,35.55
2022-08-14T09:40:21.993Z,35.62
2022-08-14T09:43:01.524Z,35.82
2022-08-14T09:45:39.996Z,35.93
2022-08-14T09:48:27.492Z,35.80
2022-08-14T09:50:57.376Z,36.04
2022-08-14T09:54:18.399Z,36.07
2022-08-14T09:56:31.640Z,36.21
2022-08-14T09:59:14.923Z,36.31
2022-08-14T10:01:46.188Z,36.38
2022-08-14T10:04:34.656Z,36.68
2022-08-14T10:07:04.089Z,36.82
2022-08-14T10:09:33.240Z,36.97
2022-08-14T10:12:05.038Z,37.01
2022-08-14T10:14:37.183Z,37.05
2022-08-14T10:17:08.404Z,37.15
2022-08-14T10:19:48.848Z,37.28
2022-08-14T10:23:12.192Z,37.35
2022-08-14T10:25:14.172Z,37.52
2022-08-14T10:27:46.435Z,37.28
2022-08-14T10:30:22.732Z,37.37
2022-08-14T10:32:55.606Z,37.45
2022-08-14T10:35:31.112Z,37.63
2022-08-14T10:38:01.812Z,37.63
2022-08-14T10:40:43.445Z,37.72
2022-08-14T10:43:23.136Z,37.64
2022-08-14T10:46:03.951Z,37.63
2022-08-14T10:48:57.442Z,37.56
2022-08-14T10:51:26.723Z,37.40
2022-08-14T10:54:01.851Z,37.91
2022-08-14T10:56:45.519Z,38.05
2022-08-14T10:59:14.020Z,38.08
2022-08-14T11:01:43.287Z,38.11
2022-08-14T11:04:25.924Z,38.11
2022-08-14T11:06:56.630Z,38.13
2022-08-14T11:09:26.519Z,38.20
2022-08-14T11:12:34.372Z,38.33
2022-08-14T11:14:56.331Z,38.43
2022-08-14T11:17:32.076Z,38.58
2022-08-14T11:20:02.526Z,38.60
2022-08-14T11:22:55.624Z,38.73
2022-08-14T11:25:23.699Z,38.75
2022-08-14T11:27:55.016Z,38.56
2022-08-14T11:30:51.515Z,38.65
2022-08-14T11:33:16.365Z,38.83
2022-08-14T11:35:49.700Z,38.93
2022-08-14T11:38:21.443Z,38.96
2022-08-14T11:40:49.800Z,39.18
2022-08-14T11:43:29.229Z,39.14
2022-08-14T11:45:58.344Z,39.16
2022-08-14T11:49:03.774Z,39.35
2022-08-14T11:51:23.744Z,39.16
2022-08-14T11:53:55.052Z,39.23
2022-08-14T11:56:25.218Z,39.10
2022-08-14T11:58:55.400Z,38.89
2022-08-14T12:01:30.908Z,38.44
2022-08-14T12:04:31.582Z,38.13
2022-08-14T12:07:01.211Z,37.87
2022-08-14T12:09:32.020Z,37.63
2022-08-14T12:12:00.584Z,37.66
2022-08-14T12:14:35.433Z,37.90
2022-08-14T12:17:06.526Z,38.11
2022-08-14T12:19:51.555Z,38.39
2022-08-14T12:22:35.149Z,38.58
2022-08-14T12:25:10.680Z,38.62
2022-08-14T12:27:52.481Z,38.54
2022-08-14T12:30:42.676Z,38.45
2022-08-14T12:33:25.672Z,38.42
2022-08-14T12:36:05.464Z,38.49
2022-08-14T12:38:36.518Z,38.49
2022-08-14T12:41:10.591Z,38.72
2022-08-14T12:43:48.049Z,38.79
2022-08-14T12:46:27.371Z,38.63
2022-08-14T12:48:58.563Z,38.71
2022-08-14T12:51:30.668Z,38.80
2022-08-14T12:54:00.280Z,38.81
2022-08-14T12:56:33.239Z,38.78
2022-08-14T12:59:04.506Z,38.89
2022-08-14T13:01:59.611Z,39.06
2022-08-14T13:04:23.264Z,39.13
2022-08-14T13:06:53.712Z,39.16
2022-08-14T13:09:27.856Z,38.97
2022-08-14T13:12:31.934Z,39.06
2022-08-14T13:14:57.709Z,39.18
2022-08-14T13:17:26.896Z,38.84
2022-08-14T13:19:58.474Z,38.92
2022-08-14T13:22:33.161Z,38.80
2022-08-14T13:25:05.273Z,38.87
2022-08-14T13:27:39.125Z,38.85
2022-08-14T13:30:14.452Z,38.73
2022-08-14T13:32:53.437Z,38.54
2022-08-14T13:35:22.609Z,38.42
2022-08-14T13:37:53.802Z,38.32
2022-08-14T13:40:26.369Z,38.30
2022-08-14T13:42:56.751Z,38.24
2022-08-14T13:45:59.656Z,38.19
2022-08-14T13:48:28.653Z,38.21
2022-08-14T13:51:05.367Z,38.23
2022-08-14T13:54:07.006Z,38.36
2022-08-14T13:56:37.970Z,38.65
2022-08-14T13:59:07.399Z,39.11
2022-08-14T14:01:43.458Z,39.57
2022-08-14T14:04:19.333Z,39.99
2022-08-14T14:06:49.890Z,39.91
2022-08-14T14:09:32.388Z,39.79
2022-08-14T14:12:08.071Z,39.68
2022-08-14T14:14:57.332Z,39.56
2022-08-14T14:17:33.370Z,39.52
2022-08-14T14:20:04.662Z,39.38
2022-08-14T14:22:35.790Z,39.28
2022-08-14T14:25:22.676Z,39.05
2022-08-14T14:27:53.361Z,39.02
2022-08-14T14:30:52.435Z,38.97
2022-08-14T14:33:42.473Z,38.97
2022-08-14T14:36:04.860Z,39.44
2022-08-14T14:38:34.824Z,39.89
2022-08-14T14:41:05.818Z,39.86
2022-08-14T14:43:37.333Z,39.68
2022-08-14T14:46:09.976Z,39.40
2022-08-14T14:48:46.515Z,39.47
2022-08-14T14:51:24.208Z,39.46
2022-08-14T14:53:53.987Z,39.35
2022-08-14T14:56:51.540Z,39.17
2022-08-14T14:59:14.323Z,39.01
2022-08-14T15:01:49.720Z,38.83
2022-08-14T15:04:20.070Z,38.71
2022-08-14T15:06:49.920Z,38.64
2022-08-14T15:09:18.475Z,38.58
2022-08-14T15:11:49.861Z,38.54
2022-08-14T15:14:54.836Z,38.59
2022-08-14T15:17:07.270Z,38.66
2022-08-14T15:19:36.209Z,38.72
2022-08-14T15:22:04.134Z,38.75
2022-08-14T15:24:32.643Z,38.72
2022-08-14T15:27:06.622Z,38.71
2022-08-14T15:29:39.306Z,38.76
2022-08-14T15:32:11.826Z,38.81
2022-08-14T15:34:44.343Z,38.88
2022-08-14T15:37:19.190Z,39.02
2022-08-14T15:39:47.084Z,39.40
2022-08-14T15:42:18.371Z,39.54
2022-08-14T15:44:58.168Z,39.88
2022-08-14T15:47:30.139Z,40.91
2022-08-14T15:50:00.088Z,42.02
2022-08-14T15:52:35.390Z,42.64
2022-08-14T15:55:15.814Z,42.50
2022-08-14T15:58:01.576Z,41.88
2022-08-14T16:00:51.990Z,41.38
2022-08-14T16:03:27.180Z,40.90
2022-08-14T16:06:05.666Z,40.63
2022-08-14T16:08:33.997Z,40.42
2022-08-14T16:11:04.116Z,40.29
2022-08-14T16:13:39.362Z,40.13
2022-08-14T16:16:47.629Z,39.86
2022-08-14T16:19:03.276Z,39.68
2022-08-14T16:21:31.971Z,39.52
2022-08-14T16:24:01.629Z,39.41
2022-08-14T16:26:30.052Z,39.52
2022-08-14T16:29:07.326Z,39.61
2022-08-14T16:31:36.748Z,39.87
2022-08-14T16:34:45.509Z,40.40
2022-08-14T16:36:55.015Z,40.82
2022-08-14T16:39:24.249Z,41.16
2022-08-14T16:41:53.548Z,41.39
2022-08-14T16:44:33.478Z,41.51
2022-08-14T16:47:05.607Z,41.47
2022-08-14T16:50:02.806Z,41.26
2022-08-14T16:52:26.082Z,41.03
2022-08-14T16:55:14.308Z,40.70
2022-08-14T16:57:50.348Z,40.31
2022-08-14T17:00:43.692Z,39.94
2022-08-14T17:03:14.576Z,39.51
2022-08-14T17:05:47.090Z,39.32
2022-08-14T17:08:32.370Z,38.95
2022-08-14T17:11:11.041Z,38.65
2022-08-14T17:13:59.383Z,38.39
2022-08-14T17:16:37.485Z,38.20
2022-08-14T17:19:09.985Z,37.98
2022-08-14T17:21:46.776Z,37.90
2022-08-14T17:24:57.594Z,37.79
2022-08-14T17:27:05.814Z,37.64
2022-08-14T17:29:44.807Z,37.62
2022-08-14T17:32:29.528Z,38.02
2022-08-14T17:35:16.849Z,38.46
2022-08-14T17:37:55.768Z,38.52
2022-08-14T17:40:31.055Z,38.11
2022-08-14T17:43:02.045Z,37.71
2022-08-14T17:45:46.961Z,37.35
2022-08-14T17:49:14.296Z,37.06
2022-08-14T17:51:23.934Z,36.81
2022-08-14T17:54:02.269Z,36.60
2022-08-14T17:56:33.365Z,36.36
2022-08-14T17:59:04.179Z,36.18
2022-08-14T18:01:37.640Z,35.99
2022-08-14T18:04:25.017Z,35.79
2022-08-14T18:07:16.689Z,35.61
2022-08-14T18:09:57.143Z,35.39
2022-08-14T18:12:32.872Z,35.18
2022-08-14T18:15:14.690Z,34.96
2022-08-14T18:17:52.821Z,34.74
2022-08-14T18:21:42.569Z,34.58
2022-08-14T18:23:14.035Z,34.47
2022-08-14T18:25:49.287Z,34.29
2022-08-14T18:28:51.366Z,34.11
2022-08-14T18:31:42.204Z,33.93
2022-08-14T18:34:31.282Z,33.74
2022-08-14T18:37:16.720Z,33.56
2022-08-14T18:40:01.979Z,33.40
2022-08-14T18:42:44.664Z,33.25
2022-08-14T18:45:18.675Z,33.09
2022-08-14T18:50:52.764Z,32.82
2022-08-14T18:53:24.600Z,32.71
2022-08-14T18:55:56.283Z,32.48
2022-08-14T18:58:46.067Z,32.33
2022-08-14T19:01:23.806Z,32.20
2022-08-14T19:03:53.049Z,32.07
2022-08-14T19:06:37.437Z,31.95
2022-08-14T19:09:08.225Z,31.92
2022-08-14T19:11:51.494Z,31.88
2022-08-14T19:14:46.127Z,31.85
2022-08-14T19:18:10.927Z,31.79
2022-08-14T19:20:47.723Z,31.73
2022-08-14T19:23:18.657Z,31.62
2022-08-14T19:26:03.541Z,31.51
2022-08-14T19:28:51.644Z,31.45
2022-08-14T19:31:55.450Z,31.42
2022-08-14T19:34:48.145Z,31.39
2022-08-14T19:37:52.316Z,31.35
2022-08-14T19:40:33.397Z,31.31
2022-08-14T19:43:06.635Z,31.24
2022-08-14T19:45:37.869Z,31.16
2022-08-14T19:48:15.589Z,31.02
2022-08-14T19:50:46.281Z,30.90
2022-08-14T19:53:18.334Z,30.77
2022-08-14T19:55:59.642Z,30.65
2022-08-14T19:58:54.727Z,30.55
2022-08-14T20:01:37.075Z,30.46
2022-08-14T20:04:45.402Z,30.32
2022-08-14T20:07:02.111Z,30.23
2022-08-14T20:11:03.253Z,30.15
2022-08-14T20:12:35.512Z,30.16
2022-08-14T20:15:15.482Z,30.13
2022-08-14T20:17:52.692Z,30.10
2022-08-14T20:20:32.026Z,30.05
2022-08-14T20:23:10.913Z,29.97
2022-08-14T20:25:55.947Z,29.88
2022-08-14T20:28:32.950Z,29.75
2022-08-14T20:31:19.587Z,29.65
2022-08-14T20:34:03.287Z,29.50
2022-08-14T20:36:31.651Z,29.38
2022-08-14T20:39:00.635Z,29.27
2022-08-14T20:41:28.747Z,29.19
2022-08-14T20:44:20.623Z,29.12
2022-08-14T20:46:53.266Z,29.12
2022-08-14T20:49:28.986Z,29.03
2022-08-14T20:52:00.296Z,28.98
2022-08-14T20:54:36.266Z,28.94
2022-08-14T20:57:09.873Z,28.87
2022-08-14T20:59:43.529Z,28.81
2022-08-14T21:02:46.854Z,28.77
2022-08-14T21:05:33.480Z,28.73
2022-08-14T21:08:08.128Z,28.62
2022-08-14T21:10:44.525Z,28.56
2022-08-14T21:13:27.960Z,28.51
2022-08-14T21:16:33.196Z,28.46
2022-08-14T21:18:58.352Z,28.37
2022-08-14T21:21:41.299Z,28.28
2022-08-14T21:24:39.854Z,28.22
2022-08-14T21:27:12.876Z,28.19
2022-08-14T21:29:53.983Z,28.21
2022-08-14T21:32:35.076Z,28.22
2022-08-14T21:35:09.968Z,28.22
2022-08-14T21:37:44.085Z,28.24
2022-08-14T21:40:40.908Z,28.21
2022-08-14T21:43:01.508Z,28.14
2022-08-14T21:45:31.843Z,28.06
2022-08-14T21:48:09.258Z,27.97
2022-08-14T21:51:01.827Z,27.97
2022-08-14T21:53:34.048Z,28.03
2022-08-14T21:56:03.542Z,28.10
2022-08-14T21:58:52.611Z,28.13
2022-08-14T22:01:21.679Z,28.19
2022-08-14T22:03:57.406Z,28.23
2022-08-14T22:06:29.482Z,28.24
2022-08-14T22:08:58.365Z,28.24
2022-08-14T22:11:27.633Z,28.24
2022-08-14T22:14:02.211Z,28.28
2022-08-14T22:17:01.791Z,28.28
2022-08-14T22:19:43.312Z,28.28
2022-08-14T22:22:23.864Z,28.24
2022-08-14T22:25:00.414Z,28.19
2022-08-14T22:27:55.544Z,28.18
2022-08-14T22:30:18.684Z,28.14
2022-08-14T22:32:57.350Z,28.06
2022-08-14T22:35:27.210Z,28.03
2022-08-14T22:38:34.706Z,28.00
2022-08-14T22:40:59.470Z,27.96
2022-08-14T22:43:36.183Z,27.90
2022-08-14T22:46:14.730Z,27.84
2022-08-14T22:48:45.226Z,27.75
2022-08-14T22:51:14.821Z,27.64
2022-08-14T22:53:45.229Z,27.59
2022-08-14T22:56:20.280Z,27.53
2022-08-14T22:58:53.805Z,27.45
2022-08-14T23:01:55.491Z,27.40
2022-08-14T23:04:34.249Z,27.32
2022-08-14T23:07:22.295Z,27.23
2022-08-14T23:09:56.540Z,27.12
2022-08-14T23:12:31.784Z,27.02
2022-08-14T23:15:04.024Z,26.94
2022-08-14T23:17:40.454Z,26.88
2022-08-14T23:20:18.981Z,26.82
2022-08-14T23:22:51.383Z,26.77
2022-08-14T23:25:50.008Z,26.71
2022-08-14T23:28:33.752Z,26.65
2022-08-14T23:31:08.365Z,26.55
2022-08-14T23:33:42.086Z,26.49
2022-08-14T23:36:31.455Z,26.45
2022-08-14T23:39:02.031Z,26.41
2022-08-14T23:41:46.944Z,26.38
2022-08-14T23:44:23.759Z,26.33
2022-08-14T23:46:56.711Z,26.32
2022-08-14T23:49:28.635Z,26.31
2022-08-14T23:52:50.553Z,26.27
2022-08-14T23:55:06.570Z,26.24
2022-08-14T23:57:43.817Z,26.24
